Asheville, North Carolina
Current Conditions -  °F | °C
As of 1:54 PM on Friday 21 Nov 2014 (Local Time) from KAVL Reporting Station
Clear Clear  
Wind Chill: 11°   Ceiling: Unl
Heat Index: 11°   Visibility: 10mi
Dew Point: -13°   Wind: 13mph
Humidity: 18%   Direction: 350°N
Pressure: 30.37"   Gusts: NA
Location:  35.6°N, 82.55°W
Report Text: KAVL 211854Z 35011KT 10SM CLR 11/M13 A3037 RMK AO2 SLP285 T01061128
Loading
Personal Weather Stations






























Interactive Weather Map New forecast layout! Learn more

10-Day Weather Forecast

Advertisements
Track Severe Weather on mobile